createdAt,value
2018-07-26T00:02:06.804Z,5.00
2018-07-26T00:04:35.669Z,4.20
2018-07-26T00:07:04.804Z,4.10
2018-07-26T00:09:33.671Z,4.37
2018-07-26T00:12:02.547Z,5.30
2018-07-26T00:14:31.400Z,4.20
2018-07-26T00:17:00.301Z,4.23
2018-07-26T00:19:29.103Z,4.47
2018-07-26T00:21:57.942Z,4.63
2018-07-26T00:24:26.890Z,4.00
2018-07-26T00:26:55.740Z,4.20
2018-07-26T00:29:24.535Z,3.70
2018-07-26T00:31:53.380Z,4.67
2018-07-26T00:34:22.206Z,4.70
2018-07-26T00:36:51.040Z,4.00
2018-07-26T00:39:19.859Z,4.47
2018-07-26T00:41:48.684Z,3.80
2018-07-26T00:44:17.482Z,4.57
2018-07-26T00:46:46.326Z,4.27
2018-07-26T00:49:15.159Z,5.13
2018-07-26T00:51:43.986Z,4.73
2018-07-26T00:54:12.852Z,4.60
2018-07-26T00:56:41.898Z,4.67
2018-07-26T00:59:10.727Z,5.27
2018-07-26T01:01:39.552Z,4.63
2018-07-26T01:04:08.432Z,5.57
2018-07-26T01:06:37.276Z,5.27
2018-07-26T01:09:09.729Z,4.80
2018-07-26T01:11:39.116Z,5.53
2018-07-26T01:14:07.979Z,5.20
2018-07-26T01:16:36.807Z,5.50
2018-07-26T01:19:05.938Z,5.20
2018-07-26T01:21:34.784Z,5.30
2018-07-26T01:24:03.859Z,4.80
2018-07-26T01:26:32.721Z,5.33
2018-07-26T01:29:01.572Z,6.20
2018-07-26T01:31:30.478Z,4.93
2018-07-26T01:33:59.347Z,5.60
2018-07-26T01:36:28.142Z,5.90
2018-07-26T01:38:56.996Z,5.47
2018-07-26T01:41:25.816Z,6.50
2018-07-26T01:44:12.327Z,5.50
2018-07-26T01:46:41.193Z,6.00
2018-07-26T01:49:10.129Z,6.70
2018-07-26T01:51:38.964Z,6.40
2018-07-26T01:54:07.941Z,6.53
2018-07-26T01:56:36.794Z,6.60
2018-07-26T01:59:05.705Z,6.77
2018-07-26T02:01:34.575Z,5.80
2018-07-26T02:04:03.409Z,6.70
2018-07-26T02:06:32.260Z,6.33
2018-07-26T02:09:01.058Z,7.93
2018-07-26T02:11:29.907Z,6.80
2018-07-26T02:13:58.742Z,8.10
2018-07-26T02:16:27.558Z,7.90
2018-07-26T02:18:56.380Z,6.87
2018-07-26T02:21:25.207Z,7.33
2018-07-26T02:23:54.096Z,8.93
2018-07-26T02:26:22.924Z,7.90
2018-07-26T02:28:51.775Z,7.20
2018-07-26T02:31:20.603Z,6.70
2018-07-26T02:33:49.450Z,7.80
2018-07-26T02:36:18.331Z,7.87
2018-07-26T02:38:47.152Z,9.67
2018-07-26T02:41:16.005Z,9.00
2018-07-26T02:43:44.882Z,10.50
2018-07-26T02:46:13.728Z,10.60
2018-07-26T02:48:42.583Z,11.50
2018-07-26T02:51:11.402Z,8.73
2018-07-26T02:53:40.220Z,8.90
2018-07-26T02:56:09.157Z,9.37
2018-07-26T02:58:38.021Z,8.37
2018-07-26T03:01:06.923Z,10.60
2018-07-26T03:03:35.805Z,8.73
2018-07-26T03:06:04.689Z,8.17
2018-07-26T03:08:33.499Z,8.70
2018-07-26T03:11:02.343Z,8.67
2018-07-26T03:13:31.172Z,7.57
2018-07-26T03:16:00.005Z,8.70
2018-07-26T03:18:28.829Z,8.73
2018-07-26T03:20:57.718Z,9.10
2018-07-26T03:23:26.524Z,8.63
2018-07-26T03:25:55.352Z,8.90
2018-07-26T03:28:24.207Z,9.60
2018-07-26T03:30:53.059Z,9.90
2018-07-26T03:33:21.997Z,8.30
2018-07-26T03:35:50.864Z,8.10
2018-07-26T03:38:19.696Z,8.80
2018-07-26T03:40:48.502Z,9.30
2018-07-26T03:43:17.327Z,8.63
2018-07-26T03:45:46.227Z,9.13
2018-07-26T03:48:15.045Z,9.07
2018-07-26T03:50:43.852Z,8.90
2018-07-26T03:53:12.729Z,7.90
2018-07-26T03:55:41.652Z,8.43
2018-07-26T03:58:10.505Z,7.10
2018-07-26T04:00:39.336Z,10.03
2018-07-26T04:03:08.176Z,9.03
2018-07-26T04:05:37.110Z,8.57
2018-07-26T04:08:06.147Z,7.93
2018-07-26T04:10:34.963Z,7.83
2018-07-26T04:13:04.028Z,7.97
2018-07-26T04:15:32.838Z,7.70
2018-07-26T04:18:05.138Z,8.83
2018-07-26T04:20:34.326Z,8.50
2018-07-26T04:23:03.364Z,7.43
2018-07-26T04:25:32.681Z,6.70
2018-07-26T04:28:02.309Z,7.53
2018-07-26T04:30:31.174Z,7.30
2018-07-26T04:33:00.012Z,6.80
2018-07-26T04:35:28.851Z,7.10
2018-07-26T04:37:57.684Z,6.80
2018-07-26T04:40:26.568Z,8.27
2018-07-26T04:42:55.494Z,7.73
2018-07-26T04:45:24.375Z,7.93
2018-07-26T04:47:53.166Z,6.90
2018-07-26T04:50:22.064Z,7.13
2018-07-26T04:52:50.892Z,6.40
2018-07-26T04:55:19.764Z,6.60
2018-07-26T04:57:48.622Z,6.20
2018-07-26T05:00:17.422Z,7.67
2018-07-26T05:02:46.369Z,7.50
2018-07-26T05:05:15.254Z,7.57
2018-07-26T05:07:44.173Z,7.50
2018-07-26T05:10:12.995Z,6.63
2018-07-26T05:12:41.822Z,6.97
2018-07-26T05:15:10.707Z,8.00
2018-07-26T05:17:39.539Z,6.43
2018-07-26T05:20:08.861Z,6.90
2018-07-26T05:22:38.475Z,6.60
2018-07-26T05:25:07.381Z,7.50
2018-07-26T05:27:36.153Z,7.30
2018-07-26T05:30:05.615Z,7.17
2018-07-26T05:32:34.475Z,7.20
2018-07-26T05:35:03.301Z,7.37
2018-07-26T05:37:32.155Z,6.47
2018-07-26T05:40:01.046Z,7.03
2018-07-26T05:42:29.965Z,8.13
2018-07-26T05:44:58.791Z,6.70
2018-07-26T05:47:27.639Z,6.53
2018-07-26T05:49:56.459Z,6.87
2018-07-26T05:52:25.320Z,10.20
2018-07-26T05:54:54.106Z,9.20
2018-07-26T05:57:22.940Z,8.77
2018-07-26T05:59:51.788Z,8.87
2018-07-26T06:02:20.624Z,7.13
2018-07-26T06:04:49.594Z,9.00
2018-07-26T06:07:18.428Z,8.17
2018-07-26T06:09:47.524Z,7.93
2018-07-26T06:12:17.170Z,7.90
2018-07-26T06:14:46.025Z,7.30
2018-07-26T06:17:14.876Z,7.20
2018-07-26T06:19:43.701Z,7.23
2018-07-26T06:22:12.571Z,6.90
2018-07-26T06:24:41.418Z,6.63
2018-07-26T06:27:10.359Z,7.20
2018-07-26T06:29:39.356Z,6.70
2018-07-26T06:32:08.200Z,6.77
2018-07-26T06:34:37.053Z,7.10
2018-07-26T06:37:06.267Z,7.00
2018-07-26T06:39:35.185Z,6.73
2018-07-26T06:42:04.032Z,6.03
2018-07-26T06:44:32.959Z,6.23
2018-07-26T06:47:01.871Z,6.80
2018-07-26T06:49:30.700Z,6.80
2018-07-26T06:51:59.575Z,6.90
2018-07-26T06:54:28.596Z,6.70
2018-07-26T06:56:57.470Z,6.73
2018-07-26T06:59:26.383Z,7.10
2018-07-26T07:01:55.277Z,5.80
2018-07-26T07:04:24.385Z,5.50
2018-07-26T07:06:53.239Z,7.70
2018-07-26T07:09:22.121Z,6.57
2018-07-26T07:11:50.993Z,6.87
2018-07-26T07:14:19.896Z,6.80
2018-07-26T07:16:48.690Z,7.07
2018-07-26T07:19:17.559Z,7.27
2018-07-26T07:21:46.458Z,6.43
2018-07-26T07:24:20.370Z,6.53
2018-07-26T07:26:51.354Z,6.87
2018-07-26T07:29:20.257Z,6.40
2018-07-26T07:31:49.145Z,7.30
2018-07-26T07:34:17.975Z,7.37
2018-07-26T07:36:46.880Z,6.83
2018-07-26T07:39:15.750Z,6.03
2018-07-26T07:41:44.715Z,7.13
2018-07-26T07:44:13.491Z,7.37
2018-07-26T07:46:42.403Z,7.30
2018-07-26T07:49:11.252Z,6.87
2018-07-26T07:51:40.088Z,6.60
2018-07-26T07:54:08.942Z,8.07
2018-07-26T07:56:39.031Z,7.33
2018-07-26T07:59:08.180Z,7.03
2018-07-26T08:01:37.928Z,7.37
2018-07-26T08:04:07.063Z,8.47
2018-07-26T08:06:35.895Z,7.90
2018-07-26T08:09:09.594Z,6.73
2018-07-26T08:11:38.432Z,6.70
2018-07-26T08:14:07.903Z,6.83
2018-07-26T08:16:36.998Z,7.10
2018-07-26T08:19:06.054Z,6.80
2018-07-26T08:21:34.897Z,6.20
2018-07-26T08:24:03.840Z,7.50
2018-07-26T08:26:33.713Z,7.50
2018-07-26T08:29:02.539Z,7.03
2018-07-26T08:31:31.374Z,6.97
2018-07-26T08:34:00.252Z,6.67
2018-07-26T08:36:29.331Z,7.50
2018-07-26T08:38:58.512Z,7.83
2018-07-26T08:41:27.375Z,6.67
2018-07-26T08:43:56.232Z,6.90
2018-07-26T08:46:25.102Z,7.60
2018-07-26T08:48:53.993Z,6.23
2018-07-26T08:51:22.876Z,8.07
2018-07-26T08:53:52.648Z,7.60
2018-07-26T08:56:21.491Z,6.80
2018-07-26T08:58:50.351Z,6.37
2018-07-26T09:01:19.357Z,6.90
2018-07-26T09:03:48.265Z,6.43
2018-07-26T09:06:17.098Z,7.07
2018-07-26T09:08:45.946Z,7.50
2018-07-26T09:11:14.801Z,6.63
2018-07-26T09:13:43.749Z,6.47
2018-07-26T09:16:12.704Z,6.30
2018-07-26T09:18:41.533Z,7.53
2018-07-26T09:21:10.446Z,7.40
2018-07-26T09:23:39.258Z,6.53
2018-07-26T09:26:08.271Z,6.90
2018-07-26T09:28:37.075Z,5.90
2018-07-26T09:31:05.919Z,6.50
2018-07-26T09:33:34.731Z,6.03
2018-07-26T09:36:03.651Z,6.70
2018-07-26T09:38:32.462Z,6.07
2018-07-26T09:41:01.472Z,6.13
2018-07-26T09:43:30.310Z,7.23
2018-07-26T09:45:59.127Z,6.27
2018-07-26T09:48:28.026Z,6.93
2018-07-26T09:50:56.916Z,7.40
2018-07-26T09:53:26.381Z,6.30
2018-07-26T09:55:55.220Z,6.70
2018-07-26T09:58:24.014Z,6.57
2018-07-26T10:00:58.178Z,6.37
2018-07-26T10:03:27.099Z,7.80
2018-07-26T10:05:56.206Z,5.60
2018-07-26T10:08:25.079Z,8.17
2018-07-26T10:10:53.960Z,7.30
2018-07-26T10:13:22.752Z,5.73
2018-07-26T10:15:51.580Z,6.10
2018-07-26T10:18:20.433Z,5.33
2018-07-26T10:20:49.312Z,6.30
2018-07-26T10:23:18.195Z,4.80
2018-07-26T10:25:47.009Z,5.60
2018-07-26T10:28:15.851Z,4.87
2018-07-26T10:30:44.697Z,5.37
2018-07-26T10:33:13.552Z,5.57
2018-07-26T10:35:42.382Z,5.33
2018-07-26T10:38:11.216Z,4.33
2018-07-26T10:40:40.056Z,5.03
2018-07-26T10:43:08.885Z,4.80
2018-07-26T10:45:38.116Z,4.27
2018-07-26T10:48:07.248Z,4.47
2018-07-26T10:50:36.101Z,4.90
2018-07-26T10:53:05.000Z,4.87
2018-07-26T10:55:33.842Z,4.13
2018-07-26T10:58:02.648Z,4.80
2018-07-26T11:00:31.475Z,4.47
2018-07-26T11:03:00.450Z,4.73
2018-07-26T11:05:29.691Z,4.27
2018-07-26T11:07:58.591Z,3.80
2018-07-26T11:10:27.874Z,4.53
2018-07-26T11:12:56.692Z,4.97
2018-07-26T11:15:30.354Z,5.00
2018-07-26T11:18:00.369Z,4.70
2018-07-26T11:20:29.259Z,4.10
2018-07-26T11:22:58.125Z,4.00
2018-07-26T11:25:26.929Z,3.70
2018-07-26T11:27:56.059Z,4.33
2018-07-26T11:30:25.157Z,3.60
2018-07-26T11:32:53.997Z,3.87
2018-07-26T11:35:22.909Z,4.97
2018-07-26T11:37:51.709Z,3.80
2018-07-26T11:40:20.788Z,3.40
2018-07-26T11:42:49.620Z,3.90
2018-07-26T11:45:18.532Z,3.70
2018-07-26T11:47:47.380Z,3.53
2018-07-26T11:50:16.233Z,3.63
2018-07-26T11:52:45.114Z,3.67
2018-07-26T11:55:13.943Z,3.37
2018-07-26T11:57:42.824Z,3.40
2018-07-26T12:00:12.603Z,2.93
2018-07-26T12:02:41.394Z,3.23
2018-07-26T12:05:10.298Z,3.23
2018-07-26T12:07:39.129Z,2.90
2018-07-26T12:10:07.921Z,2.97
2018-07-26T12:12:36.765Z,2.63
2018-07-26T12:15:05.740Z,2.70
2018-07-26T12:17:34.712Z,2.77
2018-07-26T12:20:03.605Z,2.60
2018-07-26T12:22:34.592Z,2.57
2018-07-26T12:25:03.431Z,1.90
2018-07-26T12:27:32.285Z,2.58
2018-07-26T12:30:01.262Z,2.37
2018-07-26T12:32:30.081Z,2.37
2018-07-26T12:34:58.886Z,2.10
2018-07-26T12:37:27.709Z,1.90
2018-07-26T12:39:56.376Z,2.15
2018-07-26T12:42:25.262Z,2.33
2018-07-26T12:44:54.048Z,2.33
2018-07-26T12:47:42.380Z,1.98
2018-07-26T12:50:11.178Z,2.33
2018-07-26T12:52:40.071Z,2.30
2018-07-26T12:55:08.916Z,2.08
2018-07-26T12:57:37.753Z,2.17
2018-07-26T13:00:07.816Z,2.17
2018-07-26T13:02:36.615Z,1.80
2018-07-26T13:08:02.544Z,2.30
2018-07-26T13:10:31.970Z,2.30
2018-07-26T13:13:00.779Z,1.90
2018-07-26T13:15:29.616Z,2.55
2018-07-26T13:17:58.624Z,1.90
2018-07-26T13:22:41.840Z,1.90
2018-07-26T13:25:10.733Z,2.08
2018-07-26T13:27:39.531Z,2.05
2018-07-26T13:30:08.376Z,2.00
2018-07-26T13:32:37.262Z,1.80
2018-07-26T13:35:06.217Z,2.08
2018-07-26T13:37:35.064Z,2.33
2018-07-26T13:40:03.896Z,2.30
2018-07-26T13:42:32.837Z,1.95
2018-07-26T13:45:01.745Z,2.05
2018-07-26T13:47:31.199Z,1.95
2018-07-26T13:50:00.188Z,1.75
2018-07-26T13:52:29.005Z,1.90
2018-07-26T13:54:57.867Z,1.70
2018-07-26T13:57:26.707Z,1.82
2018-07-26T13:59:55.589Z,1.85
2018-07-26T14:02:24.565Z,1.70
2018-07-26T14:04:53.399Z,2.00
2018-07-26T14:07:22.385Z,2.02
2018-07-26T14:09:51.385Z,1.70
2018-07-26T14:12:20.217Z,1.57
2018-07-26T14:14:49.031Z,1.50
2018-07-26T14:17:17.855Z,1.75
2018-07-26T14:19:46.803Z,1.90
2018-07-26T14:22:15.668Z,1.80
2018-07-26T14:24:44.464Z,1.75
2018-07-26T14:27:13.405Z,1.80
2018-07-26T14:29:42.224Z,1.70
2018-07-26T14:32:11.161Z,1.62
2018-07-26T14:34:40.013Z,1.55
2018-07-26T14:37:08.908Z,1.70
2018-07-26T14:39:37.748Z,2.77
2018-07-26T14:42:06.560Z,2.05
2018-07-26T14:44:35.429Z,2.12
2018-07-26T14:47:04.244Z,1.80
2018-07-26T14:49:33.121Z,1.60
2018-07-26T14:52:01.986Z,1.90
2018-07-26T14:54:30.915Z,1.80
2018-07-26T14:56:59.732Z,2.15
2018-07-26T14:59:28.599Z,2.00
2018-07-26T15:01:58.205Z,2.00
2018-07-26T15:04:27.002Z,2.02
2018-07-26T15:06:55.882Z,2.27
2018-07-26T15:09:24.860Z,1.82
2018-07-26T15:14:50.986Z,1.80
2018-07-26T15:17:19.824Z,2.35
2018-07-26T15:19:48.636Z,2.00
2018-07-26T15:22:17.522Z,1.85
2018-07-26T15:24:46.377Z,2.05
2018-07-26T15:27:15.191Z,2.10
2018-07-26T15:29:44.086Z,2.50
2018-07-26T15:32:12.922Z,2.70
2018-07-26T15:34:41.711Z,2.60
2018-07-26T15:37:10.530Z,2.10
2018-07-26T15:39:39.416Z,2.70
2018-07-26T15:42:08.572Z,2.35
2018-07-26T15:44:37.648Z,2.30
2018-07-26T15:47:06.466Z,2.08
2018-07-26T15:49:35.266Z,2.50
2018-07-26T15:52:04.158Z,2.35
2018-07-26T15:54:33.962Z,2.75
2018-07-26T15:57:02.849Z,2.50
2018-07-26T15:59:31.649Z,2.30
2018-07-26T16:02:00.497Z,2.90
2018-07-26T16:04:29.964Z,2.25
2018-07-26T16:06:58.860Z,2.27
2018-07-26T16:09:27.748Z,2.42
2018-07-26T16:11:56.544Z,2.52
2018-07-26T16:14:25.724Z,2.70
2018-07-26T16:16:54.589Z,2.15
2018-07-26T16:19:23.406Z,2.62
2018-07-26T16:21:52.245Z,2.77
2018-07-26T16:24:21.058Z,3.05
2018-07-26T16:26:49.885Z,2.62
2018-07-26T16:29:19.028Z,2.58
2018-07-26T16:31:47.910Z,3.00
2018-07-26T16:34:16.748Z,3.10
2018-07-26T16:36:45.649Z,2.98
2018-07-26T16:39:14.500Z,2.58
2018-07-26T16:41:43.348Z,3.08
2018-07-26T16:44:12.198Z,2.80
2018-07-26T16:46:41.052Z,3.17
2018-07-26T16:49:09.992Z,3.60
2018-07-26T16:51:38.884Z,3.20
2018-07-26T16:54:07.729Z,3.00
2018-07-26T16:56:36.538Z,3.43
2018-07-26T16:59:05.420Z,3.47
2018-07-26T17:01:34.336Z,3.80
2018-07-26T17:04:03.139Z,3.30
2018-07-26T17:06:31.968Z,3.50
2018-07-26T17:09:00.803Z,3.57
2018-07-26T17:11:29.660Z,3.23
2018-07-26T17:13:58.584Z,3.40
2018-07-26T17:16:27.419Z,3.97
2018-07-26T17:18:56.312Z,3.80
2018-07-26T17:24:22.180Z,3.70
2018-07-26T17:26:51.026Z,3.70
2018-07-26T17:29:19.896Z,3.40
2018-07-26T17:31:48.737Z,3.73
2018-07-26T17:34:17.681Z,3.10
2018-07-26T17:36:46.524Z,3.67
2018-07-26T17:39:15.424Z,4.13
2018-07-26T17:41:44.253Z,4.83
2018-07-26T17:44:13.104Z,4.10
2018-07-26T17:46:42.027Z,3.90
2018-07-26T17:49:10.886Z,3.60
2018-07-26T17:51:39.743Z,4.40
2018-07-26T17:54:08.696Z,5.00
2018-07-26T17:56:37.602Z,3.90
2018-07-26T17:59:06.895Z,4.43
2018-07-26T18:01:35.757Z,4.97
2018-07-26T18:04:04.558Z,4.33
2018-07-26T18:06:33.392Z,4.80
2018-07-26T18:09:02.236Z,4.13
2018-07-26T18:11:31.080Z,4.47
2018-07-26T18:13:59.868Z,4.33
2018-07-26T18:16:28.724Z,4.90
2018-07-26T18:18:57.600Z,5.57
2018-07-26T18:21:26.517Z,5.33
2018-07-26T18:23:55.316Z,5.10
2018-07-26T18:26:24.207Z,5.17
2018-07-26T18:28:53.022Z,5.40
2018-07-26T18:31:21.975Z,5.40
2018-07-26T18:33:50.794Z,5.47
2018-07-26T18:36:19.662Z,6.10
2018-07-26T18:38:48.518Z,6.77
2018-07-26T18:41:17.308Z,7.97
2018-07-26T18:43:46.144Z,7.97
2018-07-26T18:46:15.026Z,6.03
2018-07-26T18:48:43.847Z,6.10
2018-07-26T18:51:12.678Z,6.63
2018-07-26T18:53:41.507Z,5.80
2018-07-26T18:56:10.423Z,7.20
2018-07-26T18:58:39.246Z,6.80
2018-07-26T19:01:08.093Z,8.60
2018-07-26T19:03:36.903Z,12.03
2018-07-26T19:06:06.020Z,7.70
2018-07-26T19:08:34.889Z,7.20
2018-07-26T19:11:03.733Z,6.60
2018-07-26T19:13:32.551Z,5.77
2018-07-26T19:16:01.416Z,7.27
2018-07-26T19:18:30.272Z,6.20
2018-07-26T19:20:59.080Z,6.17
2018-07-26T19:23:27.899Z,6.60
2018-07-26T19:25:56.804Z,7.30
2018-07-26T19:28:25.614Z,7.50
2018-07-26T19:30:54.462Z,6.10
2018-07-26T19:33:23.321Z,6.80
2018-07-26T19:35:52.176Z,6.60
2018-07-26T19:38:21.055Z,8.37
2018-07-26T19:40:49.909Z,6.90
2018-07-26T19:43:18.799Z,10.27
2018-07-26T19:45:47.662Z,5.70
2018-07-26T19:48:16.481Z,5.77
2018-07-26T19:50:45.340Z,6.17
2018-07-26T19:53:14.171Z,6.37
2018-07-26T19:55:43.045Z,6.47
2018-07-26T19:58:11.927Z,6.67
2018-07-26T20:00:40.786Z,7.47
2018-07-26T20:03:09.649Z,7.40
2018-07-26T20:05:38.500Z,7.00
2018-07-26T20:08:07.894Z,5.90
2018-07-26T20:10:36.732Z,6.40
2018-07-26T20:13:05.687Z,6.77
2018-07-26T20:15:34.484Z,6.80
2018-07-26T20:18:03.349Z,5.67
2018-07-26T20:20:32.195Z,6.40
2018-07-26T20:23:01.069Z,7.10
2018-07-26T20:25:29.977Z,6.43
2018-07-26T20:27:58.816Z,6.10
2018-07-26T20:30:27.679Z,6.47
2018-07-26T20:32:56.636Z,6.60
2018-07-26T20:35:25.457Z,6.13
2018-07-26T20:37:54.320Z,6.30
2018-07-26T20:40:23.191Z,6.43
2018-07-26T20:42:52.032Z,6.00
2018-07-26T20:45:20.880Z,6.20
2018-07-26T20:47:49.695Z,5.90
2018-07-26T20:50:18.553Z,6.40
2018-07-26T20:52:47.424Z,6.43
2018-07-26T20:55:16.240Z,5.13
2018-07-26T20:57:45.035Z,7.23
2018-07-26T21:00:14.282Z,6.00
2018-07-26T21:02:43.568Z,5.90
2018-07-26T21:05:12.467Z,5.60
2018-07-26T21:07:41.302Z,5.20
2018-07-26T21:10:10.894Z,5.73
2018-07-26T21:12:39.755Z,5.00
2018-07-26T21:15:09.546Z,5.00
2018-07-26T21:17:38.407Z,5.47
2018-07-26T21:20:07.270Z,5.87
2018-07-26T21:22:36.144Z,6.30
2018-07-26T21:25:05.045Z,6.20
2018-07-26T21:27:33.851Z,6.00
2018-07-26T21:30:02.736Z,5.17
2018-07-26T21:32:31.567Z,4.93
2018-07-26T21:35:00.416Z,6.10
2018-07-26T21:37:29.211Z,5.13
2018-07-26T21:39:58.101Z,5.10
2018-07-26T21:42:26.998Z,7.47
2018-07-26T21:44:55.796Z,6.10
2018-07-26T21:47:24.669Z,6.87
2018-07-26T21:49:53.556Z,5.90
2018-07-26T21:52:22.450Z,6.10
2018-07-26T21:54:51.330Z,6.47
2018-07-26T21:57:20.202Z,7.17
2018-07-26T21:59:49.069Z,4.77
2018-07-26T22:02:17.959Z,5.30
2018-07-26T22:04:46.756Z,5.30
2018-07-26T22:07:15.592Z,5.70
2018-07-26T22:09:44.435Z,5.07
2018-07-26T22:12:13.262Z,5.40
2018-07-26T22:14:42.058Z,5.87
2018-07-26T22:17:11.098Z,6.00
2018-07-26T22:19:39.959Z,4.73
2018-07-26T22:22:08.917Z,4.87
2018-07-26T22:24:37.795Z,5.30
2018-07-26T22:27:06.718Z,4.90
2018-07-26T22:29:35.589Z,5.00
2018-07-26T22:32:04.419Z,4.80
2018-07-26T22:34:33.321Z,4.93
2018-07-26T22:37:02.183Z,4.90
2018-07-26T22:39:31.041Z,5.50
2018-07-26T22:42:00.106Z,5.93
2018-07-26T22:44:28.935Z,5.50
2018-07-26T22:46:57.800Z,5.50
2018-07-26T22:49:26.619Z,5.57
2018-07-26T22:51:55.512Z,5.13
2018-07-26T22:54:24.318Z,4.60
2018-07-26T22:56:53.191Z,5.63
2018-07-26T22:59:22.021Z,5.73
2018-07-26T23:01:50.810Z,5.60
2018-07-26T23:04:19.627Z,5.47
2018-07-26T23:06:48.511Z,4.97
2018-07-26T23:09:17.306Z,4.83
2018-07-26T23:11:46.167Z,5.70
2018-07-26T23:14:15.001Z,5.33
2018-07-26T23:16:43.884Z,5.73
2018-07-26T23:19:12.724Z,5.80
2018-07-26T23:21:41.552Z,6.50
2018-07-26T23:24:10.517Z,6.17
2018-07-26T23:26:39.365Z,5.73
2018-07-26T23:29:08.244Z,5.90
2018-07-26T23:31:37.121Z,5.30
2018-07-26T23:34:05.959Z,6.60
2018-07-26T23:36:34.840Z,5.60
2018-07-26T23:39:04.341Z,6.00
2018-07-26T23:41:33.204Z,4.97
2018-07-26T23:44:02.040Z,5.93
2018-07-26T23:46:30.958Z,5.43
2018-07-26T23:48:59.787Z,6.07
2018-07-26T23:51:28.651Z,6.57
2018-07-26T23:53:57.504Z,5.70
2018-07-26T23:56:26.343Z,5.57
2018-07-26T23:58:55.244Z,6.57
